createdAt,value
2019-06-07T00:00:52.417Z,0
2019-06-07T00:01:52.064Z,0
2019-06-07T00:02:52.101Z,0
2019-06-07T00:03:52.072Z,0
2019-06-07T00:04:52.006Z,0
2019-06-07T00:05:52.008Z,0
2019-06-07T00:06:51.738Z,0
2019-06-07T00:07:51.950Z,0
2019-06-07T00:08:51.914Z,0
2019-06-07T00:09:51.902Z,0
2019-06-07T00:10:51.873Z,0
2019-06-07T00:11:51.879Z,0
2019-06-07T00:12:51.835Z,0
2019-06-07T00:13:51.814Z,0
2019-06-07T00:14:51.785Z,0
2019-06-07T00:15:51.784Z,0
2019-06-07T00:16:51.740Z,0
2019-06-07T00:17:51.575Z,0
2019-06-07T00:18:51.696Z,0
2019-06-07T00:19:51.735Z,0
2019-06-07T00:20:51.195Z,0
2019-06-07T00:22:38.637Z,0
2019-06-07T00:23:51.585Z,0
2019-06-07T00:24:51.611Z,0
2019-06-07T00:25:51.537Z,0
2019-06-07T00:27:08.379Z,0
2019-06-07T00:27:51.504Z,0
2019-06-07T00:28:51.494Z,0
2019-06-07T00:29:51.277Z,0
2019-06-07T00:31:00.655Z,0
2019-06-07T00:31:51.404Z,0
2019-06-07T00:32:51.501Z,0
2019-06-07T00:33:51.365Z,0
2019-06-07T00:34:51.341Z,0
2019-06-07T00:35:51.316Z,0
2019-06-07T00:36:51.280Z,0
2019-06-07T00:37:51.262Z,0
2019-06-07T00:38:51.237Z,0
2019-06-07T00:40:31.066Z,0
2019-06-07T00:40:51.223Z,0
2019-06-07T00:41:51.203Z,0
2019-06-07T00:42:51.190Z,0
2019-06-07T00:43:51.131Z,0
2019-06-07T00:44:51.129Z,0
2019-06-07T00:45:51.133Z,0
2019-06-07T00:46:50.819Z,0
2019-06-07T00:47:51.044Z,0
2019-06-07T00:48:51.019Z,0
2019-06-07T00:49:50.967Z,0
2019-06-07T00:50:50.971Z,0
2019-06-07T00:52:01.026Z,0
2019-06-07T00:53:37.350Z,0
2019-06-07T00:53:50.698Z,0
2019-06-07T00:54:51.123Z,0
2019-06-07T00:55:50.865Z,0
2019-06-07T00:56:50.870Z,0
2019-06-07T00:57:50.881Z,0
2019-06-07T00:59:14.994Z,0
2019-06-07T00:59:50.762Z,0
2019-06-07T01:00:50.749Z,0
2019-06-07T01:01:50.660Z,0
2019-06-07T01:02:50.725Z,0
2019-06-07T01:03:50.706Z,0
2019-06-07T01:04:50.513Z,0
2019-06-07T01:05:50.652Z,0
2019-06-07T01:06:50.612Z,0
2019-06-07T01:07:50.366Z,0
2019-06-07T01:08:50.560Z,0
2019-06-07T01:09:50.572Z,0
2019-06-07T01:11:02.477Z,0
2019-06-07T01:11:50.514Z,0
2019-06-07T01:12:50.499Z,0
2019-06-07T01:13:50.451Z,0
2019-06-07T01:14:50.699Z,0
2019-06-07T01:15:50.409Z,0
2019-06-07T01:18:38.902Z,0
2019-06-07T01:18:58.447Z,0
2019-06-07T01:19:50.727Z,0
2019-06-07T01:20:50.757Z,0
2019-06-07T01:21:50.789Z,0
2019-06-07T01:22:50.663Z,0
2019-06-07T01:24:23.157Z,0
2019-06-07T01:24:50.617Z,0
2019-06-07T01:25:50.725Z,0
2019-06-07T01:26:50.564Z,0
2019-06-07T01:27:50.553Z,0
2019-06-07T01:28:50.549Z,0
2019-06-07T01:29:50.501Z,0
2019-06-07T01:30:50.514Z,0
2019-06-07T01:31:51.334Z,0
2019-06-07T01:32:50.424Z,0
2019-06-07T01:34:00.330Z,0
2019-06-07T01:34:50.398Z,0
2019-06-07T01:35:50.389Z,0
2019-06-07T01:36:50.342Z,0
2019-06-07T01:37:50.303Z,0
2019-06-07T01:38:50.296Z,0
2019-06-07T01:39:50.282Z,0
2019-06-07T01:40:50.242Z,0
2019-06-07T01:41:50.299Z,0
2019-06-07T01:42:50.202Z,0
2019-06-07T01:43:50.220Z,0
2019-06-07T01:44:50.150Z,0
2019-06-07T01:45:50.145Z,0
2019-06-07T01:46:50.120Z,0
2019-06-07T01:47:49.867Z,0
2019-06-07T01:48:58.826Z,0
2019-06-07T01:49:50.045Z,0
2019-06-07T01:50:50.059Z,0
2019-06-07T01:51:49.997Z,0
2019-06-07T01:52:49.976Z,0
2019-06-07T01:53:49.952Z,0
2019-06-07T01:55:06.148Z,0
2019-06-07T01:55:49.742Z,0
2019-06-07T01:56:49.918Z,0
2019-06-07T01:57:57.719Z,0
2019-06-07T01:58:49.865Z,0
2019-06-07T01:59:49.725Z,0
2019-06-07T02:00:51.425Z,0
2019-06-07T02:01:49.772Z,0
2019-06-07T02:02:49.753Z,0
2019-06-07T02:03:49.726Z,0
2019-06-07T02:04:50.572Z,0
2019-06-07T02:05:49.463Z,0
2019-06-07T02:06:49.651Z,0
2019-06-07T02:07:49.388Z,0
2019-06-07T02:08:49.598Z,0
2019-06-07T02:09:49.585Z,0
2019-06-07T02:10:49.328Z,0
2019-06-07T02:11:49.541Z,0
2019-06-07T02:12:52.984Z,0
2019-06-07T02:13:49.488Z,0
2019-06-07T02:14:49.539Z,0
2019-06-07T02:15:49.213Z,0
2019-06-07T02:16:49.455Z,0
2019-06-07T02:17:49.404Z,0
2019-06-07T02:19:11.092Z,0
2019-06-07T02:19:49.108Z,0
2019-06-07T02:20:49.343Z,0
2019-06-07T02:21:49.323Z,0
2019-06-07T02:22:49.275Z,0
2019-06-07T02:23:49.254Z,0
2019-06-07T02:25:45.819Z,0
2019-06-07T02:26:00.113Z,0
2019-06-07T02:26:58.163Z,0
2019-06-07T02:28:46.728Z,0
2019-06-07T02:28:58.095Z,0
2019-06-07T02:29:58.108Z,0
2019-06-07T02:31:09.044Z,0
2019-06-07T02:31:58.042Z,0
2019-06-07T02:32:58.025Z,0
2019-06-07T02:33:57.984Z,0
2019-06-07T02:34:57.963Z,0
2019-06-07T02:35:57.975Z,0
2019-06-07T02:36:57.936Z,0
2019-06-07T02:37:57.909Z,0
2019-06-07T02:38:57.883Z,0
2019-06-07T02:39:57.859Z,0
2019-06-07T02:40:57.842Z,0
2019-06-07T02:41:57.831Z,0
2019-06-07T02:42:57.794Z,0
2019-06-07T02:43:57.536Z,0
2019-06-07T02:44:57.772Z,0
2019-06-07T02:46:21.168Z,0
2019-06-07T02:46:59.471Z,0
2019-06-07T02:47:57.665Z,0
2019-06-07T02:48:57.689Z,0
2019-06-07T02:49:57.389Z,0
2019-06-07T02:50:57.585Z,0
2019-06-07T02:51:57.632Z,0
2019-06-07T02:52:58.521Z,0
2019-06-07T02:53:57.524Z,0
2019-06-07T02:54:57.502Z,0
2019-06-07T02:57:03.895Z,0
2019-06-07T02:58:13.622Z,0
2019-06-07T02:59:13.620Z,0
2019-06-07T03:01:13.848Z,5
2019-06-07T03:01:24.771Z,5
2019-06-07T03:02:26.408Z,5
2019-06-07T03:03:24.838Z,5
2019-06-07T03:04:27.081Z,5
2019-06-07T03:05:24.796Z,5
2019-06-07T03:06:23.473Z,10
2019-06-07T03:07:23.460Z,10
2019-06-07T03:08:23.436Z,10
2019-06-07T03:09:23.410Z,10
2019-06-07T03:10:23.429Z,10
2019-06-07T03:11:23.360Z,15
2019-06-07T03:12:23.097Z,15
2019-06-07T03:13:23.103Z,15
2019-06-07T03:14:23.294Z,15
2019-06-07T03:15:55.099Z,20
2019-06-07T03:16:23.234Z,20
2019-06-07T03:17:23.204Z,20
2019-06-07T03:18:23.264Z,25
2019-06-07T03:19:23.172Z,25
2019-06-07T03:20:22.935Z,25
2019-06-07T03:21:23.117Z,30
2019-06-07T03:22:23.103Z,30
2019-06-07T03:23:23.104Z,35
2019-06-07T03:24:23.041Z,35
2019-06-07T03:25:23.032Z,40
2019-06-07T03:26:23.015Z,40
2019-06-07T03:27:57.692Z,45
2019-06-07T03:28:22.986Z,45
2019-06-07T03:29:22.933Z,50
2019-06-07T03:31:08.476Z,50
2019-06-07T03:32:22.734Z,50
2019-06-07T03:33:22.626Z,55
2019-06-07T03:34:22.830Z,55
2019-06-07T03:35:22.551Z,60
2019-06-07T03:36:39.136Z,60
2019-06-07T03:37:22.769Z,65
2019-06-07T03:38:22.747Z,65
2019-06-07T03:39:22.772Z,70
2019-06-07T03:40:22.673Z,75
2019-06-07T03:41:22.654Z,75
2019-06-07T03:42:22.633Z,80
2019-06-07T03:43:22.624Z,80
2019-06-07T03:44:22.596Z,85
2019-06-07T03:45:22.350Z,85
2019-06-07T03:46:22.535Z,90
2019-06-07T03:47:22.524Z,90
2019-06-07T03:48:22.522Z,90
2019-06-07T03:49:22.474Z,95
2019-06-07T03:50:21.735Z,100
2019-06-07T03:51:43.135Z,100
2019-06-07T03:52:22.409Z,105
2019-06-07T03:53:22.436Z,105
2019-06-07T03:54:22.370Z,105
2019-06-07T03:55:22.368Z,110
2019-06-07T03:56:23.575Z,110
2019-06-07T03:57:22.291Z,115
2019-06-07T03:58:56.838Z,120
2019-06-07T03:59:22.233Z,120
2019-06-07T04:00:21.545Z,120
2019-06-07T04:01:22.197Z,120
2019-06-07T04:02:22.216Z,125
2019-06-07T04:03:56.604Z,125
2019-06-07T04:04:22.144Z,125
2019-06-07T04:05:21.639Z,130
2019-06-07T04:06:22.098Z,130
2019-06-07T04:07:21.822Z,130
2019-06-07T04:08:22.040Z,135
2019-06-07T04:09:22.031Z,135
2019-06-07T04:10:44.592Z,140
2019-06-07T04:11:21.990Z,140
2019-06-07T04:12:21.942Z,145
2019-06-07T04:13:21.931Z,145
2019-06-07T04:14:21.966Z,150
2019-06-07T04:15:21.651Z,150
2019-06-07T04:16:21.863Z,150
2019-06-07T04:17:21.919Z,155
2019-06-07T04:18:21.822Z,155
2019-06-07T04:19:21.795Z,160
2019-06-07T04:20:21.592Z,160
2019-06-07T04:21:21.766Z,165
2019-06-07T04:22:21.556Z,165
2019-06-07T04:23:49.781Z,175
2019-06-07T04:24:21.685Z,175
2019-06-07T04:25:21.443Z,180
2019-06-07T04:26:21.713Z,185
2019-06-07T04:27:21.373Z,185
2019-06-07T04:28:21.599Z,185
2019-06-07T04:30:13.549Z,190
2019-06-07T04:31:24.658Z,195
2019-06-07T04:32:23.267Z,195
2019-06-07T04:33:23.228Z,195
2019-06-07T04:34:23.201Z,195
2019-06-07T04:35:23.185Z,195
2019-06-07T04:37:00.842Z,195
2019-06-07T04:37:23.142Z,195
2019-06-07T04:38:23.108Z,200
2019-06-07T04:39:23.162Z,200
2019-06-07T04:40:22.636Z,200
2019-06-07T04:41:23.039Z,205
2019-06-07T04:42:23.012Z,205
2019-06-07T04:43:23.014Z,210
2019-06-07T04:44:22.975Z,210
2019-06-07T04:45:55.549Z,210
2019-06-07T04:46:22.928Z,215
2019-06-07T04:47:22.989Z,215
2019-06-07T04:48:22.896Z,215
2019-06-07T04:49:22.875Z,225
2019-06-07T04:50:22.431Z,220
2019-06-07T04:51:23.673Z,225
2019-06-07T04:52:22.790Z,230
2019-06-07T04:53:22.866Z,235
2019-06-07T04:54:22.551Z,240
2019-06-07T04:55:22.259Z,245
2019-06-07T04:56:22.737Z,250
2019-06-07T04:57:22.748Z,250
2019-06-07T04:58:22.758Z,255
2019-06-07T05:01:02.976Z,260
2019-06-07T05:01:41.341Z,265
2019-06-07T05:02:13.284Z,260
2019-06-07T05:03:13.277Z,270
2019-06-07T05:04:13.260Z,275
2019-06-07T05:05:13.214Z,285
2019-06-07T05:06:13.674Z,290
2019-06-07T05:07:13.813Z,295
2019-06-07T05:08:42.467Z,305
2019-06-07T05:09:13.159Z,305
2019-06-07T05:10:13.136Z,310
2019-06-07T05:11:13.682Z,320
2019-06-07T05:12:13.086Z,325
2019-06-07T05:13:13.373Z,335
2019-06-07T05:14:13.099Z,345
2019-06-07T05:15:13.008Z,355
2019-06-07T05:16:12.997Z,365
2019-06-07T05:17:13.112Z,375
2019-06-07T05:18:12.939Z,385
2019-06-07T05:19:12.932Z,390
2019-06-07T05:20:16.023Z,395
2019-06-07T05:21:12.892Z,400
2019-06-07T05:22:14.707Z,405
2019-06-07T05:23:55.636Z,415
2019-06-07T05:24:19.089Z,435
2019-06-07T05:25:12.820Z,470
2019-06-07T05:26:12.792Z,505
2019-06-07T05:27:13.091Z,485
2019-06-07T05:28:12.749Z,445
2019-06-07T05:29:12.718Z,430
2019-06-07T05:31:12.982Z,480
2019-06-07T05:32:22.729Z,485
2019-06-07T05:33:22.692Z,450
2019-06-07T05:34:22.673Z,445
2019-06-07T05:35:22.999Z,415
2019-06-07T05:36:22.673Z,395
2019-06-07T05:37:22.700Z,385
2019-06-07T05:38:22.621Z,405
2019-06-07T05:39:22.582Z,435
2019-06-07T05:40:23.863Z,440
2019-06-07T05:41:22.310Z,435
2019-06-07T05:42:22.531Z,400
2019-06-07T05:43:22.564Z,405
2019-06-07T05:44:24.480Z,385
2019-06-07T05:45:22.479Z,410
2019-06-07T05:46:22.497Z,410
2019-06-07T05:47:22.492Z,405
2019-06-07T05:48:22.867Z,415
2019-06-07T05:49:22.382Z,415
2019-06-07T05:51:02.853Z,410
2019-06-07T05:51:22.372Z,415
2019-06-07T05:52:22.348Z,405
2019-06-07T05:53:22.324Z,410
2019-06-07T05:54:22.312Z,405
2019-06-07T05:55:21.560Z,405
2019-06-07T05:56:23.740Z,400
2019-06-07T05:57:22.250Z,405
2019-06-07T05:58:22.270Z,400
2019-06-07T05:59:22.214Z,395
2019-06-07T06:00:21.712Z,395
2019-06-07T06:02:25.216Z,395
2019-06-07T06:03:04.593Z,395
2019-06-07T06:03:40.266Z,395
2019-06-07T06:04:37.239Z,400
2019-06-07T06:05:59.717Z,400
2019-06-07T06:06:36.517Z,400
2019-06-07T06:07:39.411Z,400
2019-06-07T06:08:39.985Z,405
2019-06-07T06:09:38.117Z,405
2019-06-07T06:10:37.006Z,410
2019-06-07T06:12:07.324Z,415
2019-06-07T06:12:57.023Z,415
2019-06-07T06:13:34.834Z,420
2019-06-07T06:14:35.258Z,435
2019-06-07T06:16:07.608Z,450
2019-06-07T06:16:34.788Z,460
2019-06-07T06:17:36.808Z,500
2019-06-07T06:18:35.635Z,800
2019-06-07T06:19:36.613Z,1150
2019-06-07T06:21:24.069Z,1325
2019-06-07T06:21:36.088Z,1315
2019-06-07T06:22:34.742Z,1320
2019-06-07T06:23:34.663Z,1370
2019-06-07T06:24:34.422Z,1410
2019-06-07T06:26:00.511Z,1390
2019-06-07T06:26:36.847Z,1445
2019-06-07T06:28:20.687Z,1475
2019-06-07T06:28:36.845Z,1480
2019-06-07T06:29:35.913Z,1450
2019-06-07T06:30:35.818Z,1460
2019-06-07T06:31:34.558Z,1470
2019-06-07T06:33:05.142Z,1475
2019-06-07T06:33:49.539Z,1475
2019-06-07T06:34:34.277Z,1365
2019-06-07T06:35:34.513Z,1470
2019-06-07T06:36:34.548Z,1515
2019-06-07T06:37:34.503Z,1475
2019-06-07T06:38:34.470Z,1495
2019-06-07T06:39:34.448Z,1385
2019-06-07T06:40:34.199Z,1220
2019-06-07T06:42:00.785Z,1370
2019-06-07T06:42:34.389Z,1250
2019-06-07T06:43:34.430Z,1370
2019-06-07T06:44:35.492Z,1410
2019-06-07T06:45:37.458Z,1365
2019-06-07T06:47:02.275Z,1220
2019-06-07T06:47:34.277Z,1235
2019-06-07T06:48:34.331Z,1080
2019-06-07T06:49:34.438Z,1025
2019-06-07T06:50:34.865Z,1085
2019-06-07T06:51:34.550Z,965
2019-06-07T06:52:34.635Z,910
2019-06-07T06:53:36.314Z,1055
2019-06-07T06:55:05.774Z,820
2019-06-07T06:55:34.225Z,925
2019-06-07T06:56:34.604Z,985
2019-06-07T06:57:34.984Z,920
2019-06-07T06:59:38.479Z,1090
2019-06-07T06:59:58.011Z,910
2019-06-07T07:01:12.716Z,1065
2019-06-07T07:01:55.337Z,1040
2019-06-07T07:04:18.342Z,1125
2019-06-07T07:05:28.076Z,1045
2019-06-07T07:06:35.702Z,1075
2019-06-07T07:07:28.205Z,880
2019-06-07T07:08:28.032Z,845
2019-06-07T07:09:28.028Z,775
2019-06-07T07:10:28.806Z,920
2019-06-07T07:11:33.245Z,1010
2019-06-07T07:12:27.493Z,1095
2019-06-07T07:13:28.389Z,790
2019-06-07T07:14:27.961Z,850
2019-06-07T07:15:27.951Z,910
2019-06-07T07:16:29.536Z,895
2019-06-07T07:18:11.345Z,830
2019-06-07T07:18:27.937Z,770
2019-06-07T07:19:27.921Z,905
2019-06-07T07:20:28.104Z,1015
2019-06-07T07:21:27.881Z,1045
2019-06-07T07:22:27.986Z,1030
2019-06-07T07:23:27.939Z,1035
2019-06-07T07:24:31.368Z,1070
2019-06-07T07:25:27.808Z,1225
2019-06-07T07:26:27.832Z,1305
2019-06-07T07:27:30.557Z,1045
2019-06-07T07:28:28.343Z,1095
2019-06-07T07:29:27.952Z,1185
2019-06-07T07:30:59.782Z,1315
2019-06-07T07:31:27.744Z,1235
2019-06-07T07:32:29.188Z,1360
2019-06-07T07:34:12.746Z,1385
2019-06-07T07:34:52.539Z,1450
2019-06-07T07:35:30.519Z,1395
2019-06-07T07:36:59.494Z,1345
2019-06-07T07:37:31.100Z,1480
2019-06-07T07:38:32.407Z,1510
2019-06-07T07:39:33.026Z,1460
2019-06-07T07:41:21.310Z,1405
2019-06-07T07:42:31.376Z,1355
2019-06-07T07:43:31.730Z,1370
2019-06-07T07:44:31.092Z,1285
2019-06-07T07:45:30.849Z,1335
2019-06-07T07:46:40.239Z,1510
2019-06-07T07:47:31.054Z,1495
2019-06-07T07:48:31.039Z,1620
2019-06-07T07:49:31.073Z,1540
2019-06-07T07:50:31.098Z,1480
2019-06-07T07:51:31.919Z,1500
2019-06-07T07:52:31.045Z,1470
2019-06-07T07:54:11.420Z,1605
2019-06-07T07:54:32.381Z,1520
2019-06-07T07:55:32.110Z,1610
2019-06-07T07:56:31.710Z,1390
2019-06-07T07:57:30.973Z,1490
2019-06-07T07:58:30.950Z,1605
2019-06-07T08:01:10.945Z,1745
2019-06-07T08:01:21.016Z,1375
2019-06-07T08:02:21.112Z,1660
2019-06-07T08:03:21.251Z,1770
2019-06-07T08:05:13.380Z,1745
2019-06-07T08:05:58.844Z,1640
2019-06-07T08:06:31.405Z,1725
2019-06-07T08:07:30.737Z,1505
2019-06-07T08:08:30.320Z,1615
2019-06-07T08:09:30.477Z,1355
2019-06-07T08:10:31.046Z,1325
2019-06-07T08:11:30.073Z,1575
2019-06-07T08:12:30.358Z,1710
2019-06-07T08:13:37.367Z,1530
2019-06-07T08:14:30.315Z,1495
2019-06-07T08:15:29.792Z,1715
2019-06-07T08:16:30.294Z,1720
2019-06-07T08:17:30.211Z,1750
2019-06-07T08:18:30.225Z,1790
2019-06-07T08:19:30.193Z,1780
2019-06-07T08:20:29.694Z,1820
2019-06-07T08:21:35.728Z,1795
2019-06-07T08:22:30.179Z,1820
2019-06-07T08:23:29.922Z,1800
2019-06-07T08:24:30.148Z,1795
2019-06-07T08:25:29.889Z,1875
2019-06-07T08:26:30.258Z,1885
2019-06-07T08:27:36.205Z,1900
2019-06-07T08:28:30.222Z,1815
2019-06-07T08:30:03.480Z,1840
2019-06-07T08:31:12.757Z,1830
2019-06-07T08:31:30.819Z,1905
2019-06-07T08:32:31.929Z,1905
2019-06-07T08:33:38.613Z,1910
2019-06-07T08:34:30.091Z,1910
2019-06-07T08:36:45.512Z,1935
2019-06-07T08:37:04.462Z,1935
2019-06-07T08:39:10.004Z,1945
2019-06-07T08:39:19.760Z,1935
2019-06-07T08:40:19.536Z,1940
2019-06-07T08:41:22.079Z,1960
2019-06-07T08:43:23.320Z,1985
2019-06-07T08:43:33.103Z,1995
2019-06-07T08:44:34.886Z,2015
2019-06-07T08:45:33.102Z,2005
2019-06-07T08:46:33.981Z,2025
2019-06-07T08:47:33.041Z,2045
2019-06-07T08:48:37.662Z,2040
2019-06-07T08:49:32.778Z,2020
2019-06-07T08:50:33.122Z,2040
2019-06-07T08:51:33.205Z,2065
2019-06-07T08:52:33.907Z,2065
2019-06-07T08:53:33.919Z,2065
2019-06-07T08:54:33.843Z,2080
2019-06-07T08:55:35.144Z,2065
2019-06-07T08:56:36.247Z,2065
2019-06-07T08:57:36.454Z,2090
2019-06-07T08:58:35.310Z,2075
2019-06-07T08:59:36.035Z,2025
2019-06-07T09:01:12.090Z,2100
2019-06-07T09:01:35.997Z,2095
2019-06-07T09:02:38.154Z,2105
2019-06-07T09:03:32.916Z,2100
2019-06-07T09:04:32.913Z,2120
2019-06-07T09:05:32.905Z,2130
2019-06-07T09:07:24.794Z,2135
2019-06-07T09:07:34.579Z,2140
2019-06-07T09:08:39.821Z,2145
2019-06-07T09:09:34.540Z,2150
2019-06-07T09:10:35.128Z,2145
2019-06-07T09:11:34.683Z,2160
2019-06-07T09:12:34.550Z,2145
2019-06-07T09:13:35.734Z,2125
2019-06-07T09:14:34.493Z,2145
2019-06-07T09:15:34.495Z,2120
2019-06-07T09:16:34.846Z,2135
2019-06-07T09:17:34.669Z,2160
2019-06-07T09:18:56.004Z,2195
2019-06-07T09:19:34.455Z,2200
2019-06-07T09:20:46.344Z,2180
2019-06-07T09:21:34.484Z,2195
2019-06-07T09:22:34.546Z,2205
2019-06-07T09:23:34.555Z,2175
2019-06-07T09:24:34.536Z,2220
2019-06-07T09:25:51.998Z,2235
2019-06-07T09:26:34.435Z,2240
2019-06-07T09:27:34.190Z,2225
2019-06-07T09:28:34.443Z,2220
2019-06-07T09:29:35.668Z,2230
2019-06-07T09:30:36.677Z,2245
2019-06-07T09:32:18.004Z,2255
2019-06-07T09:32:37.455Z,2265
2019-06-07T09:33:36.202Z,2285
2019-06-07T09:34:38.043Z,2305
2019-06-07T09:35:37.518Z,2320
2019-06-07T09:36:37.707Z,2330
2019-06-07T09:38:33.166Z,2175
2019-06-07T09:38:46.563Z,2250
2019-06-07T09:39:46.984Z,2115
2019-06-07T09:40:46.575Z,2295
2019-06-07T09:42:08.324Z,2145
2019-06-07T09:42:45.992Z,2250
2019-06-07T09:44:32.242Z,2285
2019-06-07T09:44:45.734Z,1940
2019-06-07T09:45:46.789Z,2385
2019-06-07T09:46:43.302Z,1850
2019-06-07T09:47:43.391Z,2310
2019-06-07T09:49:38.046Z,1980
2019-06-07T09:50:50.282Z,2410
2019-06-07T09:51:48.704Z,2415
2019-06-07T09:53:28.194Z,2370
2019-06-07T09:53:50.660Z,2365
2019-06-07T09:55:31.100Z,2380
2019-06-07T09:55:49.956Z,2355
2019-06-07T09:56:49.195Z,2395
2019-06-07T09:57:47.780Z,2345
2019-06-07T09:59:15.591Z,2350
2019-06-07T09:59:49.392Z,2370
2019-06-07T10:00:51.525Z,2370
2019-06-07T10:01:47.756Z,2345
2019-06-07T10:02:47.764Z,2365
2019-06-07T10:03:47.832Z,2380
2019-06-07T10:04:47.744Z,2365
2019-06-07T10:05:47.738Z,2430
2019-06-07T10:06:48.057Z,2430
2019-06-07T10:10:42.033Z,2330
2019-06-07T10:11:38.963Z,2375
2019-06-07T10:12:39.207Z,2385
2019-06-07T10:13:39.223Z,2430
2019-06-07T10:14:38.966Z,2455
2019-06-07T10:15:39.206Z,2455
2019-06-07T10:16:55.746Z,2460
2019-06-07T10:17:39.171Z,2470
2019-06-07T10:18:38.770Z,2470
2019-06-07T10:19:39.164Z,2445
2019-06-07T10:20:39.175Z,2405
2019-06-07T10:21:39.011Z,2300
2019-06-07T10:22:38.705Z,1785
2019-06-07T10:23:38.984Z,1030
2019-06-07T10:24:39.183Z,710
2019-06-07T10:25:39.176Z,695
2019-06-07T10:26:39.236Z,905
2019-06-07T10:27:39.125Z,1620
2019-06-07T10:28:39.159Z,2240
2019-06-07T10:29:39.123Z,2400
2019-06-07T10:30:39.107Z,2440
2019-06-07T10:31:39.132Z,2475
2019-06-07T10:32:39.134Z,2505
2019-06-07T10:33:39.103Z,2500
2019-06-07T10:34:39.115Z,2485
2019-06-07T10:35:39.216Z,2515
2019-06-07T10:36:39.141Z,2505
2019-06-07T10:37:39.079Z,2495
2019-06-07T10:38:39.098Z,2500
2019-06-07T10:39:55.166Z,2510
2019-06-07T10:40:39.059Z,2490
2019-06-07T10:41:39.088Z,2500
2019-06-07T10:42:39.069Z,2500
2019-06-07T10:43:38.823Z,2065
2019-06-07T10:44:39.067Z,2485
2019-06-07T10:45:39.077Z,2530
2019-06-07T10:46:39.064Z,2150
2019-06-07T10:47:39.050Z,2385
2019-06-07T10:48:39.051Z,1745
2019-06-07T10:49:39.043Z,2230
2019-06-07T10:50:39.056Z,2535
2019-06-07T10:51:38.807Z,2470
2019-06-07T10:52:39.048Z,1750
2019-06-07T10:53:39.789Z,2025
2019-06-07T10:54:40.250Z,2375
2019-06-07T10:55:39.018Z,2500
2019-06-07T10:56:39.049Z,2540
2019-06-07T10:57:39.031Z,2560
2019-06-07T10:58:39.019Z,2580
2019-06-07T10:59:39.012Z,2585
2019-06-07T11:00:39.003Z,2235
2019-06-07T11:01:39.052Z,2050
2019-06-07T11:02:39.010Z,2140
2019-06-07T11:03:38.788Z,2525
2019-06-07T11:04:39.107Z,2600
2019-06-07T11:05:38.797Z,1340
2019-06-07T11:06:39.247Z,2215
2019-06-07T11:07:39.191Z,1315
2019-06-07T11:08:39.084Z,1620
2019-06-07T11:09:39.007Z,1300
2019-06-07T11:10:38.742Z,1225
2019-06-07T11:11:39.035Z,950
2019-06-07T11:12:38.989Z,910
2019-06-07T11:13:38.984Z,2450
2019-06-07T11:14:38.974Z,1865
2019-06-07T11:15:38.969Z,1855
2019-06-07T11:16:39.152Z,1300
2019-06-07T11:17:38.999Z,1020
2019-06-07T11:18:38.750Z,2420
2019-06-07T11:19:38.972Z,2810
2019-06-07T11:20:38.714Z,1135
2019-06-07T11:21:38.799Z,1875
2019-06-07T11:22:38.975Z,1980
2019-06-07T11:23:38.690Z,2360
2019-06-07T11:24:38.938Z,1620
2019-06-07T11:25:38.915Z,2765
2019-06-07T11:26:38.994Z,2880
2019-06-07T11:27:38.903Z,2795
2019-06-07T11:28:38.909Z,2905
2019-06-07T11:29:38.895Z,2880
2019-06-07T11:30:38.888Z,2440
2019-06-07T11:31:38.887Z,2860
2019-06-07T11:32:38.890Z,2785
2019-06-07T11:33:38.911Z,2730
2019-06-07T11:34:38.877Z,2705
2019-06-07T11:35:38.394Z,2745
2019-06-07T11:36:38.978Z,2740
2019-06-07T11:37:38.863Z,1295
2019-06-07T11:38:38.867Z,2610
2019-06-07T11:39:38.892Z,2160
2019-06-07T11:40:44.602Z,2840
2019-06-07T11:41:38.870Z,2810
2019-06-07T11:42:38.872Z,2765
2019-06-07T11:43:38.871Z,2735
2019-06-07T11:44:53.115Z,2740
2019-06-07T11:45:38.707Z,2740
2019-06-07T11:46:38.858Z,2725
2019-06-07T11:47:38.910Z,2740
2019-06-07T11:48:38.609Z,2760
2019-06-07T11:49:40.499Z,2780
2019-06-07T11:50:38.838Z,2760
2019-06-07T11:51:39.152Z,2795
2019-06-07T11:52:40.054Z,2815
2019-06-07T11:53:38.846Z,2795
2019-06-07T11:54:38.831Z,2790
2019-06-07T11:55:40.032Z,2815
2019-06-07T11:56:38.896Z,2840
2019-06-07T11:57:38.351Z,2820
2019-06-07T11:58:38.467Z,2790
2019-06-07T11:59:38.604Z,2775
2019-06-07T12:00:41.416Z,2785
2019-06-07T12:01:41.762Z,2775
2019-06-07T12:02:38.640Z,2810
2019-06-07T12:03:38.869Z,2805
2019-06-07T12:04:44.448Z,2775
2019-06-07T12:05:38.843Z,2745
2019-06-07T12:06:38.846Z,2745
2019-06-07T12:07:39.397Z,2730
2019-06-07T12:08:38.712Z,2715
2019-06-07T12:09:38.576Z,2705
2019-06-07T12:10:51.417Z,2710
2019-06-07T12:11:38.855Z,2755
2019-06-07T12:12:38.837Z,2695
2019-06-07T12:13:38.895Z,2690
2019-06-07T12:14:38.889Z,2710
2019-06-07T12:15:38.396Z,2735
2019-06-07T12:16:38.888Z,2715
2019-06-07T12:17:39.036Z,2715
2019-06-07T12:18:38.981Z,2720
2019-06-07T12:19:38.848Z,2715
2019-06-07T12:20:38.629Z,2680
2019-06-07T12:21:38.859Z,2670
2019-06-07T12:22:38.866Z,2685
2019-06-07T12:23:38.883Z,2665
2019-06-07T12:24:38.873Z,2645
2019-06-07T12:25:38.379Z,2630
2019-06-07T12:26:38.935Z,2630
2019-06-07T12:27:38.878Z,2635
2019-06-07T12:28:38.860Z,2625
2019-06-07T12:29:41.022Z,2645
2019-06-07T12:30:38.877Z,2630
2019-06-07T12:31:38.649Z,2620
2019-06-07T12:32:39.025Z,2635
2019-06-07T12:33:38.987Z,2635
2019-06-07T12:34:39.197Z,2630
2019-06-07T12:35:39.015Z,2610
2019-06-07T12:36:39.010Z,2645
2019-06-07T12:37:53.666Z,2695
2019-06-07T12:38:39.344Z,2660
2019-06-07T12:39:39.455Z,2695
2019-06-07T12:40:54.613Z,2730
2019-06-07T12:41:38.954Z,2780
2019-06-07T12:42:39.088Z,2745
2019-06-07T12:43:39.267Z,2705
2019-06-07T12:44:39.189Z,2685
2019-06-07T12:45:54.091Z,2640
2019-06-07T12:46:38.912Z,2615
2019-06-07T12:47:38.923Z,1155
2019-06-07T12:48:38.933Z,2670
2019-06-07T12:49:38.943Z,2650
2019-06-07T12:50:52.010Z,2650
2019-06-07T12:51:38.639Z,2635
2019-06-07T12:52:39.098Z,2590
2019-06-07T12:53:39.079Z,990
2019-06-07T12:54:38.706Z,2675
2019-06-07T12:55:38.713Z,2640
2019-06-07T12:56:39.004Z,2620
2019-06-07T12:57:38.759Z,2580
2019-06-07T12:58:46.637Z,2570
2019-06-07T12:59:38.949Z,2545
2019-06-07T13:00:38.976Z,2530
2019-06-07T13:01:38.968Z,2485
2019-06-07T13:02:38.959Z,2585
2019-06-07T13:03:39.067Z,2610
2019-06-07T13:04:38.976Z,2650
2019-06-07T13:05:38.969Z,845
2019-06-07T13:06:39.012Z,800
2019-06-07T13:07:38.961Z,1020
2019-06-07T13:08:38.980Z,985
2019-06-07T13:09:40.963Z,1135
2019-06-07T13:10:38.974Z,1220
2019-06-07T13:11:41.974Z,3080
2019-06-07T13:12:39.048Z,1785
2019-06-07T13:13:39.022Z,1335
2019-06-07T13:14:39.280Z,1100
2019-06-07T13:15:38.976Z,1095
2019-06-07T13:16:38.981Z,1060
2019-06-07T13:17:38.995Z,1165
2019-06-07T13:18:38.742Z,1630
2019-06-07T13:19:38.983Z,2560
2019-06-07T13:20:38.742Z,2905
2019-06-07T13:21:41.263Z,2135
2019-06-07T13:22:39.081Z,1010
2019-06-07T13:23:39.038Z,1495
2019-06-07T13:24:38.978Z,1665
2019-06-07T13:25:54.611Z,1160
2019-06-07T13:26:39.066Z,1240
2019-06-07T13:27:43.041Z,1760
2019-06-07T13:28:39.531Z,2840
2019-06-07T13:29:41.625Z,2770
2019-06-07T13:30:41.146Z,2730
2019-06-07T13:31:38.987Z,2705
2019-06-07T13:32:40.211Z,1000
2019-06-07T13:33:46.854Z,1580
2019-06-07T13:34:38.970Z,1765
2019-06-07T13:35:38.945Z,2455
2019-06-07T13:36:39.970Z,2610
2019-06-07T13:37:38.980Z,2640
2019-06-07T13:38:38.739Z,2635
2019-06-07T13:39:39.389Z,2615
2019-06-07T13:40:40.446Z,2570
2019-06-07T13:41:51.211Z,2515
2019-06-07T13:42:38.975Z,2505
2019-06-07T13:43:39.001Z,2475
2019-06-07T13:44:38.990Z,2500
2019-06-07T13:45:38.762Z,2530
2019-06-07T13:46:39.003Z,2565
2019-06-07T13:47:38.999Z,2585
2019-06-07T13:48:39.087Z,2560
2019-06-07T13:49:39.023Z,2085
2019-06-07T13:50:39.051Z,2515
2019-06-07T13:51:43.023Z,2460
2019-06-07T13:52:40.451Z,2440
2019-06-07T13:53:39.013Z,1765
2019-06-07T13:54:39.240Z,1365
2019-06-07T13:55:41.015Z,2165
2019-06-07T13:56:57.625Z,1440
2019-06-07T13:57:39.032Z,1620
2019-06-07T13:58:38.792Z,2720
2019-06-07T13:59:39.055Z,1570
2019-06-07T14:00:38.562Z,1250
2019-06-07T14:01:39.028Z,1170
2019-06-07T14:02:39.382Z,1185